Miami, Florida
Traffic Map
Current Weather Conditions
Miami, Florida
Clear
Clear
24°
Feels Like: 24°
Wind Chill: 24° Ceiling: Unl
Heat Index: 24° Visibility: 10mi
Dew Point: 21° Wind: 3mph
Humidity: 79% Direction: 190° (S)
Pressure: 30.16in Gusts: 0mph
Raw Report DataKMIA 060353Z 19003KT 10SM CLR 24/21 A3016 RMK AO2 SLP213 T02440206
Traffic Incident Summary
Active as of:
Severity:
Category:
InformationThere was an issue retrieving the traffic information for this location. Please try a different location or try again shortly.
Advertisements
Track Severe Weather on mobile